Flight Track Log - Related Links

Times and Time Zones

All times are in EDT time to prevent confusion due to time zone crossing. See the WBR2634 flight status page for this flight to view local times or setup timezone preferences in your user account.

Time Position Orientation Groundspeed Altitude Reporting Facility
EDT Latitude Longitude Course Direction KTS MPH feet Rate Location/Type
Fri 08:45:49 PM 40.7558 -91.1219 65° Northeast 90 104 1,300  Level Chicago Center
Fri 08:46:51 PM 40.7517 -91.0786 97° East 134 154 2,000 774 Climbing Chicago Center
Fri 08:47:53 PM 40.7681 -91.0331 65° Northeast 137 158 2,900 864 Climbing Chicago Center
Fri 08:48:00 PM 40.8833 -90.8019 90° East  Level FlightAware Approximate
Fri 08:48:56 PM 40.7839 -90.9872 65° Northeast 138 159 3,800  Level Chicago Center
Fri 08:49:00 PM 40.9029 -90.7551 72° East  Level FlightAware Approximate
Fri 08:49:58 PM 40.8006 -90.9394 65° Northeast 141 162 4,600  Level Chicago Center
Fri 08:50:00 PM 40.9168 -90.6997 65° Northeast  Level FlightAware Approximate
Fri 08:51:00 PM 40.9351 -90.6466 65° Northeast  Level FlightAware Approximate
Fri 08:51:00 PM 40.8200 -90.8828 66° East 141 162 5,500  Level Chicago Center
Fri 08:52:02 PM 40.8369 -90.8356 65° Northeast 141 162 6,300 774 Climbing Chicago Center
Fri 08:53:04 PM 40.8531 -90.7861 67° East 145 167 7,100 774 Climbing Chicago Center
Fri 08:54:06 PM 40.8703 -90.7397 64° Northeast 143 165 7,900 677 Climbing Chicago Center
Fri 08:55:08 PM 40.8889 -90.6939 62° Northeast 141 162 8,500 532 Climbing Chicago Center
Fri 08:56:10 PM 40.9058 -90.6456 65° Northeast 143 165 9,000 242 Climbing Chicago Center
Fri 08:57:12 PM 40.9244 -90.5878 67° East 163 188 9,000  Level Chicago Center
Fri 08:58:14 PM 40.9506 -90.5200 63° Northeast 170 196 9,000  Level Chicago Center
Fri 08:59:16 PM 40.9733 -90.4661 61° Northeast 169 194 9,000  Level Chicago Center
Fri 09:00:18 PM 40.9944 -90.4092 64° Northeast 171 197 9,000  Level Chicago Center
Fri 09:01:23 PM 41.0139 -90.3517 66° East 171 197 9,000  Level Chicago Center
Fri 09:02:25 PM 41.0342 -90.2942 65° Northeast 172 198 9,000  Level Chicago Center
Fri 09:03:27 PM 41.0583 -90.2261 65° Northeast 170 196 9,000  Level Chicago Center
Fri 09:04:29 PM 41.0778 -90.1706 65° Northeast 167 192 9,000 48 Level Chicago Center
Fri 09:05:32 PM 41.0981 -90.1156 64° Northeast 166 191 9,100  Climbing Chicago Center
Fri 09:06:34 PM 41.1175 -90.0583 66° East 169 194 9,000  Descending Chicago Center
Fri 09:07:36 PM 41.1369 -90.0017 65° Northeast 169 194 9,100  Climbing Chicago Center
Fri 09:08:38 PM 41.1564 -89.9447 66° East 168 193 9,000 -48 Descending Chicago Center
Fri 09:09:40 PM 41.1756 -89.8878 66° East 169 194 9,000  Level Chicago Center
Fri 09:10:42 PM 41.1975 -89.8219 66° East 164 189 9,000 48 Level Chicago Center
Fri 09:11:44 PM 41.2169 -89.7650 66° East 166 191 9,100 48 Climbing Chicago Center
Fri 09:12:46 PM 41.2356 -89.7072 67° East 170 196 9,100  Level Chicago Center
Fri 09:13:48 PM 41.2561 -89.6489 65° Northeast 173 199 9,100 -48 Level Chicago Center
Fri 09:14:50 PM 41.2769 -89.5914 64° Northeast 173 199 9,000 -48 Descending Chicago Center
Fri 09:15:52 PM 41.2983 -89.5358 63° Northeast 171 197 9,000  Level Chicago Center
Fri 09:16:54 PM 41.3219 -89.4661 66° East 172 198 9,000  Level Chicago Center
Fri 09:17:57 PM 41.3431 -89.4100 63° Northeast 170 196 9,000  Level Chicago Center
Fri 09:18:59 PM 41.3628 -89.3519 66° East 172 198 9,000 -145 Level Chicago Center
Fri 09:20:01 PM 41.3836 -89.2944 64° Northeast 171 197 8,700 -435 Descending Chicago Center
Fri 09:21:03 PM 41.4031 -89.2353 66° East 174 200 8,100 -290 Descending Chicago Center
Fri 09:22:05 PM 41.4261 -89.1703 65° Northeast 178 205 8,100 -48 Level Chicago Center
Fri 09:23:07 PM 41.4444 -89.1100 68° East 177 204 8,000 -48 Descending Chicago Center
Fri 09:24:09 PM 41.4647 -89.0497 66° East 180 207 8,000 48 Level Chicago Center
Fri 09:25:11 PM 41.4914 -88.9814 62° Northeast 175 201 8,100 48 Climbing Chicago Center
Fri 09:26:13 PM 41.5117 -88.9219 65° Northeast 176 203 8,100  Level Chicago Center
Fri 09:27:15 PM 41.5311 -88.8619 67° East 178 205 8,100  Level Chicago Center
Fri 09:28:17 PM 41.5506 -88.8003 67° East 181 208 8,100  Level Chicago Center
Fri 09:29:19 PM 41.5683 -88.7372 69° East 183 211 8,100  Level Chicago Center
Fri 09:30:21 PM 41.5911 -88.6653 67° East 178 205 8,100 -48 Level Chicago Center
Fri 09:31:23 PM 41.6111 -88.6044 66° East 180 207 8,000  Descending Chicago Center
Fri 09:32:25 PM 41.6381 -88.5508 56° Northeast 177 204 8,100  Climbing Chicago Center
Fri 09:33:27 PM 41.6647 -88.4947 58° Northeast 178 205 8,000 -194 Descending Chicago Center
Fri 09:34:29 PM 41.6906 -88.4392 58° Northeast 179 206 7,700 -387 Descending Chicago Center
Fri 09:35:31 PM 41.7169 -88.3833 58° Northeast 180 207 7,200 -290 Descending Chicago Center
Fri 09:36:33 PM 41.7539 -88.3214 51° Northeast 178 205 7,100 -48 Descending Chicago Center
Fri 09:37:35 PM 41.7850 -88.2703 51° Northeast 177 204 7,100  Level Chicago Center
Fri 09:38:37 PM 41.8133 -88.2169 55° Northeast 177 204 7,100  Level Chicago Center
Fri 09:39:39 PM 41.8433 -88.1656 52° Northeast 176 203 7,100 -48 Level Chicago Center
Fri 09:40:41 PM 41.8508 -88.0975 82° East 186 214 7,000  Descending Chicago Center
Fri 09:41:43 PM 41.8572 -88.0294 83° East 186 214 7,100  Climbing Chicago Center
Fri 09:42:45 PM 41.8656 -87.9483 82° East 184 212 7,000  Descending Chicago Center
Fri 09:43:46 PM 41.8736 -87.8797 81° East 185 213 7,100 -98 Climbing Chicago Center
Fri 09:44:48 PM 41.8825 -87.8131 80° East 182 209 6,800 -677 Descending Chicago Center
Fri 09:45:50 PM 41.8894 -87.7439 82° East 184 212 5,700 -968 Descending Chicago Center
Fri 09:46:52 PM 41.8978 -87.6733 81° East 190 219 4,800 -823 Descending Chicago Center
Fri 09:47:54 PM 41.9317 -87.6342 41° Northeast 181 208 4,000 -871 Descending Chicago Center
Fri 09:48:56 PM 41.9681 -87.6619 330° Northwest 151 174 3,000 -927 Descending Chicago Center
Fri 09:49:57 PM 41.9692 -87.7144 272° West 146 168 2,100 -683 Descending Chicago Center
Fri 09:50:59 PM 41.9692 -87.7678 270° West 144 166 1,600 -290 Descending Chicago Center
Fri 09:52:01 PM 41.9683 -87.8217 269° West 144 166 1,500 -97 Descending Chicago Center
Fri 09:54:00 PM 41.9667 -87.9000 292° West  Level FlightAware Approximate

Login

Don't have an account? Register now (free) for customized features, flight alerts, and more!